sensor_id;sensor_type;location;lat;lon;timestamp;P1;durP1;ratioP1;P2;durP2;ratioP2
13173;SDS011;6652;48.802;9.190;2024-03-06T00:00:08;5.20;;;3.13;;
13173;SDS011;6652;48.802;9.190;2024-03-06T00:02:36;7.00;;;3.08;;
13173;SDS011;6652;48.802;9.190;2024-03-06T00:05:03;7.90;;;3.35;;
13173;SDS011;6652;48.802;9.190;2024-03-06T00:07:32;11.55;;;3.58;;
13173;SDS011;6652;48.802;9.190;2024-03-06T00:09:59;8.32;;;3.58;;
13173;SDS011;6652;48.802;9.190;2024-03-06T00:12:26;5.65;;;3.40;;
13173;SDS011;6652;48.802;9.190;2024-03-06T00:14:53;12.40;;;3.95;;
13173;SDS011;6652;48.802;9.190;2024-03-06T00:17:21;7.80;;;3.20;;
13173;SDS011;6652;48.802;9.190;2024-03-06T00:19:48;12.75;;;3.67;;
13173;SDS011;6652;48.802;9.190;2024-03-06T00:22:16;5.70;;;2.88;;
13173;SDS011;6652;48.802;9.190;2024-03-06T00:24:43;8.18;;;2.65;;
13173;SDS011;6652;48.802;9.190;2024-03-06T00:27:10;7.05;;;2.45;;
13173;SDS011;6652;48.802;9.190;2024-03-06T00:29:36;10.63;;;3.17;;
13173;SDS011;6652;48.802;9.190;2024-03-06T00:32:04;7.35;;;2.83;;
13173;SDS011;6652;48.802;9.190;2024-03-06T00:34:32;8.27;;;3.40;;
13173;SDS011;6652;48.802;9.190;2024-03-06T00:36:59;6.57;;;2.90;;
13173;SDS011;6652;48.802;9.190;2024-03-06T00:39:26;8.45;;;2.95;;
13173;SDS011;6652;48.802;9.190;2024-03-06T00:41:53;7.40;;;2.97;;
13173;SDS011;6652;48.802;9.190;2024-03-06T00:44:20;6.50;;;2.80;;
13173;SDS011;6652;48.802;9.190;2024-03-06T00:46:47;6.20;;;2.75;;
13173;SDS011;6652;48.802;9.190;2024-03-06T00:49:14;7.03;;;2.30;;
13173;SDS011;6652;48.802;9.190;2024-03-06T00:51:42;3.90;;;2.60;;
13173;SDS011;6652;48.802;9.190;2024-03-06T00:54:09;8.07;;;2.10;;
13173;SDS011;6652;48.802;9.190;2024-03-06T00:56:37;5.00;;;2.88;;
13173;SDS011;6652;48.802;9.190;2024-03-06T00:59:04;8.63;;;2.10;;
13173;SDS011;6652;48.802;9.190;2024-03-06T01:01:31;5.70;;;2.47;;
13173;SDS011;6652;48.802;9.190;2024-03-06T01:03:58;5.38;;;2.00;;
13173;SDS011;6652;48.802;9.190;2024-03-06T01:06:25;9.55;;;2.28;;
13173;SDS011;6652;48.802;9.190;2024-03-06T01:08:54;7.35;;;3.03;;
13173;SDS011;6652;48.802;9.190;2024-03-06T01:11:22;4.78;;;2.88;;
13173;SDS011;6652;48.802;9.190;2024-03-06T01:13:48;10.35;;;2.90;;
13173;SDS011;6652;48.802;9.190;2024-03-06T01:16:15;8.25;;;3.70;;
13173;SDS011;6652;48.802;9.190;2024-03-06T01:18:43;11.20;;;5.40;;
13173;SDS011;6652;48.802;9.190;2024-03-06T01:21:10;12.02;;;6.63;;
13173;SDS011;6652;48.802;9.190;2024-03-06T01:23:37;15.48;;;7.47;;
13173;SDS011;6652;48.802;9.190;2024-03-06T01:26:06;14.10;;;6.50;;
13173;SDS011;6652;48.802;9.190;2024-03-06T01:28:33;20.45;;;6.28;;
13173;SDS011;6652;48.802;9.190;2024-03-06T01:31:00;17.23;;;8.55;;
13173;SDS011;6652;48.802;9.190;2024-03-06T01:33:26;14.70;;;7.40;;
13173;SDS011;6652;48.802;9.190;2024-03-06T01:35:53;12.70;;;5.78;;
13173;SDS011;6652;48.802;9.190;2024-03-06T01:38:20;11.60;;;5.60;;
13173;SDS011;6652;48.802;9.190;2024-03-06T01:40:47;10.38;;;5.15;;
13173;SDS011;6652;48.802;9.190;2024-03-06T01:43:20;9.68;;;5.43;;
13173;SDS011;6652;48.802;9.190;2024-03-06T01:45:48;9.82;;;4.70;;
13173;SDS011;6652;48.802;9.190;2024-03-06T01:48:15;12.35;;;4.68;;
13173;SDS011;6652;48.802;9.190;2024-03-06T01:50:42;9.88;;;4.50;;
13173;SDS011;6652;48.802;9.190;2024-03-06T01:53:10;9.30;;;4.40;;
13173;SDS011;6652;48.802;9.190;2024-03-06T01:55:38;9.55;;;4.80;;
13173;SDS011;6652;48.802;9.190;2024-03-06T01:58:05;13.35;;;4.70;;
13173;SDS011;6652;48.802;9.190;2024-03-06T02:00:34;16.65;;;5.13;;
13173;SDS011;6652;48.802;9.190;2024-03-06T02:03:02;11.63;;;4.43;;
13173;SDS011;6652;48.802;9.190;2024-03-06T02:05:29;7.18;;;3.20;;
13173;SDS011;6652;48.802;9.190;2024-03-06T02:07:57;9.35;;;4.32;;
13173;SDS011;6652;48.802;9.190;2024-03-06T02:10:25;18.27;;;6.88;;
13173;SDS011;6652;48.802;9.190;2024-03-06T02:12:52;16.40;;;7.57;;
13173;SDS011;6652;48.802;9.190;2024-03-06T02:15:19;23.88;;;9.95;;
13173;SDS011;6652;48.802;9.190;2024-03-06T02:17:47;19.00;;;10.82;;
13173;SDS011;6652;48.802;9.190;2024-03-06T02:20:14;20.27;;;10.85;;
13173;SDS011;6652;48.802;9.190;2024-03-06T02:22:43;20.30;;;9.05;;
13173;SDS011;6652;48.802;9.190;2024-03-06T02:25:10;19.52;;;9.85;;
13173;SDS011;6652;48.802;9.190;2024-03-06T02:27:37;12.10;;;7.50;;
13173;SDS011;6652;48.802;9.190;2024-03-06T02:30:05;11.63;;;7.22;;
13173;SDS011;6652;48.802;9.190;2024-03-06T02:32:32;14.88;;;6.80;;
13173;SDS011;6652;48.802;9.190;2024-03-06T02:35:00;14.60;;;7.05;;
13173;SDS011;6652;48.802;9.190;2024-03-06T02:37:28;11.77;;;6.20;;
13173;SDS011;6652;48.802;9.190;2024-03-06T02:39:56;10.82;;;5.72;;
13173;SDS011;6652;48.802;9.190;2024-03-06T02:42:24;11.13;;;5.68;;
13173;SDS011;6652;48.802;9.190;2024-03-06T02:44:52;11.75;;;5.35;;
13173;SDS011;6652;48.802;9.190;2024-03-06T02:47:19;10.02;;;5.65;;
13173;SDS011;6652;48.802;9.190;2024-03-06T02:49:46;10.00;;;5.22;;
13173;SDS011;6652;48.802;9.190;2024-03-06T02:52:13;10.98;;;5.05;;
13173;SDS011;6652;48.802;9.190;2024-03-06T02:54:40;12.45;;;5.35;;
13173;SDS011;6652;48.802;9.190;2024-03-06T02:57:08;8.27;;;4.68;;
13173;SDS011;6652;48.802;9.190;2024-03-06T02:59:35;10.80;;;4.85;;
13173;SDS011;6652;48.802;9.190;2024-03-06T03:02:02;7.45;;;3.92;;
13173;SDS011;6652;48.802;9.190;2024-03-06T03:04:29;8.43;;;4.35;;
13173;SDS011;6652;48.802;9.190;2024-03-06T03:06:56;11.98;;;3.80;;
13173;SDS011;6652;48.802;9.190;2024-03-06T03:09:23;9.95;;;4.18;;
13173;SDS011;6652;48.802;9.190;2024-03-06T03:11:50;8.35;;;4.03;;
13173;SDS011;6652;48.802;9.190;2024-03-06T03:14:18;11.23;;;4.43;;
13173;SDS011;6652;48.802;9.190;2024-03-06T03:16:45;10.60;;;4.32;;
13173;SDS011;6652;48.802;9.190;2024-03-06T03:19:12;13.75;;;4.45;;
13173;SDS011;6652;48.802;9.190;2024-03-06T03:21:42;10.68;;;4.20;;
13173;SDS011;6652;48.802;9.190;2024-03-06T03:24:09;8.32;;;3.90;;
13173;SDS011;6652;48.802;9.190;2024-03-06T03:26:36;8.18;;;3.72;;
13173;SDS011;6652;48.802;9.190;2024-03-06T03:29:03;6.53;;;3.30;;
13173;SDS011;6652;48.802;9.190;2024-03-06T03:31:32;7.18;;;4.10;;
13173;SDS011;6652;48.802;9.190;2024-03-06T03:33:59;10.18;;;4.20;;
13173;SDS011;6652;48.802;9.190;2024-03-06T03:36:26;8.95;;;3.78;;
13173;SDS011;6652;48.802;9.190;2024-03-06T03:38:53;7.10;;;3.63;;
13173;SDS011;6652;48.802;9.190;2024-03-06T03:41:19;7.50;;;3.92;;
13173;SDS011;6652;48.802;9.190;2024-03-06T03:43:46;5.88;;;3.22;;
13173;SDS011;6652;48.802;9.190;2024-03-06T03:46:14;9.43;;;3.65;;
13173;SDS011;6652;48.802;9.190;2024-03-06T03:48:42;6.57;;;3.70;;
13173;SDS011;6652;48.802;9.190;2024-03-06T03:51:09;9.00;;;3.42;;
13173;SDS011;6652;48.802;9.190;2024-03-06T03:53:36;9.57;;;3.50;;
13173;SDS011;6652;48.802;9.190;2024-03-06T03:56:03;11.38;;;3.70;;
13173;SDS011;6652;48.802;9.190;2024-03-06T03:58:30;10.23;;;3.65;;
13173;SDS011;6652;48.802;9.190;2024-03-06T04:00:57;9.48;;;3.55;;
13173;SDS011;6652;48.802;9.190;2024-03-06T04:03:24;7.57;;;3.30;;
13173;SDS011;6652;48.802;9.190;2024-03-06T04:05:52;8.18;;;3.88;;
13173;SDS011;6652;48.802;9.190;2024-03-06T04:08:19;12.32;;;4.28;;
13173;SDS011;6652;48.802;9.190;2024-03-06T04:10:45;8.88;;;4.10;;
13173;SDS011;6652;48.802;9.190;2024-03-06T04:13:12;7.53;;;4.25;;
13173;SDS011;6652;48.802;9.190;2024-03-06T04:15:41;11.70;;;3.90;;
13173;SDS011;6652;48.802;9.190;2024-03-06T04:18:08;6.47;;;4.00;;
13173;SDS011;6652;48.802;9.190;2024-03-06T04:20:35;8.82;;;4.70;;
13173;SDS011;6652;48.802;9.190;2024-03-06T04:23:03;9.50;;;4.32;;
13173;SDS011;6652;48.802;9.190;2024-03-06T04:25:30;6.18;;;4.07;;
13173;SDS011;6652;48.802;9.190;2024-03-06T04:27:57;13.27;;;4.68;;
13173;SDS011;6652;48.802;9.190;2024-03-06T04:30:24;11.50;;;4.35;;
13173;SDS011;6652;48.802;9.190;2024-03-06T04:32:51;6.55;;;3.92;;
13173;SDS011;6652;48.802;9.190;2024-03-06T04:35:17;7.47;;;4.15;;
13173;SDS011;6652;48.802;9.190;2024-03-06T04:37:44;9.75;;;4.63;;
13173;SDS011;6652;48.802;9.190;2024-03-06T04:40:12;9.18;;;4.05;;
13173;SDS011;6652;48.802;9.190;2024-03-06T04:42:42;7.30;;;4.60;;
13173;SDS011;6652;48.802;9.190;2024-03-06T04:45:13;7.93;;;4.38;;
13173;SDS011;6652;48.802;9.190;2024-03-06T04:47:41;10.50;;;4.72;;
13173;SDS011;6652;48.802;9.190;2024-03-06T04:50:08;9.43;;;5.05;;
13173;SDS011;6652;48.802;9.190;2024-03-06T04:52:36;8.23;;;4.45;;
13173;SDS011;6652;48.802;9.190;2024-03-06T04:55:04;7.85;;;4.43;;
13173;SDS011;6652;48.802;9.190;2024-03-06T04:57:34;9.05;;;5.05;;
13173;SDS011;6652;48.802;9.190;2024-03-06T05:00:01;7.95;;;4.05;;
13173;SDS011;6652;48.802;9.190;2024-03-06T05:02:30;10.32;;;4.82;;
13173;SDS011;6652;48.802;9.190;2024-03-06T05:04:59;10.65;;;4.90;;
13173;SDS011;6652;48.802;9.190;2024-03-06T05:07:27;14.93;;;5.50;;
13173;SDS011;6652;48.802;9.190;2024-03-06T05:09:54;10.00;;;3.83;;
13173;SDS011;6652;48.802;9.190;2024-03-06T05:12:22;9.02;;;4.90;;
13173;SDS011;6652;48.802;9.190;2024-03-06T05:14:50;9.65;;;5.00;;
13173;SDS011;6652;48.802;9.190;2024-03-06T05:17:17;9.63;;;4.90;;
13173;SDS011;6652;48.802;9.190;2024-03-06T05:19:44;10.57;;;5.00;;
13173;SDS011;6652;48.802;9.190;2024-03-06T05:22:12;8.45;;;4.88;;
13173;SDS011;6652;48.802;9.190;2024-03-06T05:24:39;15.23;;;6.30;;
13173;SDS011;6652;48.802;9.190;2024-03-06T05:27:07;10.32;;;5.38;;
13173;SDS011;6652;48.802;9.190;2024-03-06T05:29:34;9.80;;;5.07;;
13173;SDS011;6652;48.802;9.190;2024-03-06T05:32:03;10.68;;;5.05;;
13173;SDS011;6652;48.802;9.190;2024-03-06T05:34:32;12.02;;;5.28;;
13173;SDS011;6652;48.802;9.190;2024-03-06T05:36:59;11.55;;;5.32;;
13173;SDS011;6652;48.802;9.190;2024-03-06T05:39:29;11.35;;;5.40;;
13173;SDS011;6652;48.802;9.190;2024-03-06T05:41:59;13.85;;;5.10;;
13173;SDS011;6652;48.802;9.190;2024-03-06T05:44:27;9.30;;;5.47;;
13173;SDS011;6652;48.802;9.190;2024-03-06T05:46:55;12.75;;;6.03;;
13173;SDS011;6652;48.802;9.190;2024-03-06T05:49:23;13.18;;;5.88;;
13173;SDS011;6652;48.802;9.190;2024-03-06T05:51:50;10.05;;;5.40;;
13173;SDS011;6652;48.802;9.190;2024-03-06T05:54:17;11.32;;;5.50;;
13173;SDS011;6652;48.802;9.190;2024-03-06T05:56:44;13.88;;;5.70;;
13173;SDS011;6652;48.802;9.190;2024-03-06T05:59:11;10.27;;;5.60;;
13173;SDS011;6652;48.802;9.190;2024-03-06T06:01:38;13.00;;;5.43;;
13173;SDS011;6652;48.802;9.190;2024-03-06T06:04:05;11.07;;;5.88;;
13173;SDS011;6652;48.802;9.190;2024-03-06T06:06:33;10.02;;;4.78;;
13173;SDS011;6652;48.802;9.190;2024-03-06T06:09:00;13.05;;;6.25;;
13173;SDS011;6652;48.802;9.190;2024-03-06T06:11:28;10.68;;;6.07;;
13173;SDS011;6652;48.802;9.190;2024-03-06T06:13:55;11.02;;;5.75;;
13173;SDS011;6652;48.802;9.190;2024-03-06T06:16:22;16.52;;;5.85;;
13173;SDS011;6652;48.802;9.190;2024-03-06T06:18:49;12.27;;;5.43;;
13173;SDS011;6652;48.802;9.190;2024-03-06T06:21:16;8.55;;;5.68;;
13173;SDS011;6652;48.802;9.190;2024-03-06T06:23:45;11.43;;;6.03;;
13173;SDS011;6652;48.802;9.190;2024-03-06T06:26:13;14.13;;;5.85;;
13173;SDS011;6652;48.802;9.190;2024-03-06T06:28:40;14.90;;;7.28;;
13173;SDS011;6652;48.802;9.190;2024-03-06T06:31:08;17.10;;;6.47;;
13173;SDS011;6652;48.802;9.190;2024-03-06T06:33:35;11.38;;;5.93;;
13173;SDS011;6652;48.802;9.190;2024-03-06T06:36:02;13.88;;;6.82;;
13173;SDS011;6652;48.802;9.190;2024-03-06T06:38:29;13.68;;;6.38;;
13173;SDS011;6652;48.802;9.190;2024-03-06T06:40:58;14.13;;;7.20;;
13173;SDS011;6652;48.802;9.190;2024-03-06T06:43:25;13.10;;;6.50;;
13173;SDS011;6652;48.802;9.190;2024-03-06T06:45:52;13.25;;;6.60;;
13173;SDS011;6652;48.802;9.190;2024-03-06T06:48:19;15.43;;;6.85;;
13173;SDS011;6652;48.802;9.190;2024-03-06T06:50:46;19.92;;;6.75;;
13173;SDS011;6652;48.802;9.190;2024-03-06T06:53:13;13.95;;;7.65;;
13173;SDS011;6652;48.802;9.190;2024-03-06T06:55:39;12.10;;;7.13;;
13173;SDS011;6652;48.802;9.190;2024-03-06T06:58:08;10.52;;;6.07;;
13173;SDS011;6652;48.802;9.190;2024-03-06T07:00:35;12.05;;;6.70;;
13173;SDS011;6652;48.802;9.190;2024-03-06T07:03:02;10.05;;;6.03;;
13173;SDS011;6652;48.802;9.190;2024-03-06T07:05:30;13.32;;;6.38;;
13173;SDS011;6652;48.802;9.190;2024-03-06T07:07:56;11.55;;;5.85;;
13173;SDS011;6652;48.802;9.190;2024-03-06T07:10:23;14.48;;;6.60;;
13173;SDS011;6652;48.802;9.190;2024-03-06T07:12:51;13.63;;;5.80;;
13173;SDS011;6652;48.802;9.190;2024-03-06T07:15:19;16.67;;;6.80;;
13173;SDS011;6652;48.802;9.190;2024-03-06T07:17:46;17.20;;;7.38;;
13173;SDS011;6652;48.802;9.190;2024-03-06T07:20:13;16.23;;;6.00;;
13173;SDS011;6652;48.802;9.190;2024-03-06T07:22:40;17.75;;;6.63;;
13173;SDS011;6652;48.802;9.190;2024-03-06T07:25:07;13.27;;;6.07;;
13173;SDS011;6652;48.802;9.190;2024-03-06T07:27:34;14.60;;;6.07;;
13173;SDS011;6652;48.802;9.190;2024-03-06T07:30:01;15.13;;;7.03;;
13173;SDS011;6652;48.802;9.190;2024-03-06T07:32:30;12.20;;;6.18;;
13173;SDS011;6652;48.802;9.190;2024-03-06T07:34:57;16.63;;;7.00;;
13173;SDS011;6652;48.802;9.190;2024-03-06T07:37:24;14.43;;;6.18;;
13173;SDS011;6652;48.802;9.190;2024-03-06T07:39:51;15.55;;;6.75;;
13173;SDS011;6652;48.802;9.190;2024-03-06T07:42:18;13.07;;;6.18;;
13173;SDS011;6652;48.802;9.190;2024-03-06T07:44:46;8.80;;;6.07;;
13173;SDS011;6652;48.802;9.190;2024-03-06T07:47:13;13.88;;;6.03;;
13173;SDS011;6652;48.802;9.190;2024-03-06T07:49:41;13.43;;;6.30;;
13173;SDS011;6652;48.802;9.190;2024-03-06T07:52:09;13.55;;;6.13;;
13173;SDS011;6652;48.802;9.190;2024-03-06T07:54:36;15.43;;;6.25;;
13173;SDS011;6652;48.802;9.190;2024-03-06T07:57:04;10.50;;;5.68;;
13173;SDS011;6652;48.802;9.190;2024-03-06T07:59:31;20.25;;;7.57;;
13173;SDS011;6652;48.802;9.190;2024-03-06T08:01:58;12.95;;;6.00;;
13173;SDS011;6652;48.802;9.190;2024-03-06T08:04:26;9.27;;;5.85;;
13173;SDS011;6652;48.802;9.190;2024-03-06T08:06:54;14.00;;;6.68;;
13173;SDS011;6652;48.802;9.190;2024-03-06T08:09:21;11.90;;;6.40;;
13173;SDS011;6652;48.802;9.190;2024-03-06T08:11:48;13.63;;;5.80;;
13173;SDS011;6652;48.802;9.190;2024-03-06T08:14:15;11.05;;;5.85;;
13173;SDS011;6652;48.802;9.190;2024-03-06T08:16:42;9.88;;;5.43;;
13173;SDS011;6652;48.802;9.190;2024-03-06T08:19:09;14.32;;;5.28;;
13173;SDS011;6652;48.802;9.190;2024-03-06T08:21:36;8.70;;;5.43;;
13173;SDS011;6652;48.802;9.190;2024-03-06T08:24:05;12.38;;;4.60;;
13173;SDS011;6652;48.802;9.190;2024-03-06T08:26:32;11.73;;;6.20;;
13173;SDS011;6652;48.802;9.190;2024-03-06T08:28:59;10.55;;;5.50;;
13173;SDS011;6652;48.802;9.190;2024-03-06T08:31:26;11.60;;;5.32;;
13173;SDS011;6652;48.802;9.190;2024-03-06T08:33:52;11.02;;;4.57;;
13173;SDS011;6652;48.802;9.190;2024-03-06T08:36:19;10.35;;;5.07;;
13173;SDS011;6652;48.802;9.190;2024-03-06T08:38:47;11.68;;;4.47;;
13173;SDS011;6652;48.802;9.190;2024-03-06T08:41:15;10.88;;;5.05;;
13173;SDS011;6652;48.802;9.190;2024-03-06T08:43:43;9.25;;;4.90;;
13173;SDS011;6652;48.802;9.190;2024-03-06T08:46:10;12.98;;;5.38;;
13173;SDS011;6652;48.802;9.190;2024-03-06T08:48:37;8.07;;;4.47;;
13173;SDS011;6652;48.802;9.190;2024-03-06T08:51:04;14.05;;;5.13;;
13173;SDS011;6652;48.802;9.190;2024-03-06T08:53:35;10.52;;;5.15;;
13173;SDS011;6652;48.802;9.190;2024-03-06T08:56:03;10.48;;;5.43;;
13173;SDS011;6652;48.802;9.190;2024-03-06T08:58:32;12.38;;;5.40;;
13173;SDS011;6652;48.802;9.190;2024-03-06T09:00:59;10.13;;;5.10;;
13173;SDS011;6652;48.802;9.190;2024-03-06T09:03:26;11.95;;;5.63;;
13173;SDS011;6652;48.802;9.190;2024-03-06T09:05:53;10.73;;;4.93;;
13173;SDS011;6652;48.802;9.190;2024-03-06T09:08:20;11.88;;;5.75;;
13173;SDS011;6652;48.802;9.190;2024-03-06T09:10:47;11.25;;;5.70;;
13173;SDS011;6652;48.802;9.190;2024-03-06T09:13:14;12.40;;;6.40;;
13173;SDS011;6652;48.802;9.190;2024-03-06T09:15:42;15.07;;;5.93;;
13173;SDS011;6652;48.802;9.190;2024-03-06T09:18:09;17.25;;;6.30;;
13173;SDS011;6652;48.802;9.190;2024-03-06T09:20:36;11.18;;;6.07;;
13173;SDS011;6652;48.802;9.190;2024-03-06T09:23:03;12.80;;;6.63;;
13173;SDS011;6652;48.802;9.190;2024-03-06T09:25:30;10.52;;;6.22;;
13173;SDS011;6652;48.802;9.190;2024-03-06T09:27:57;9.95;;;6.18;;
13173;SDS011;6652;48.802;9.190;2024-03-06T09:30:25;12.32;;;5.72;;
13173;SDS011;6652;48.802;9.190;2024-03-06T09:32:54;13.55;;;5.53;;
13173;SDS011;6652;48.802;9.190;2024-03-06T09:35:21;12.45;;;6.93;;
13173;SDS011;6652;48.802;9.190;2024-03-06T09:37:48;12.40;;;5.82;;
13173;SDS011;6652;48.802;9.190;2024-03-06T09:40:19;9.77;;;6.32;;
13173;SDS011;6652;48.802;9.190;2024-03-06T09:42:48;11.10;;;6.13;;
13173;SDS011;6652;48.802;9.190;2024-03-06T09:45:15;12.05;;;6.97;;
13173;SDS011;6652;48.802;9.190;2024-03-06T09:47:42;12.90;;;6.50;;
13173;SDS011;6652;48.802;9.190;2024-03-06T09:50:11;10.75;;;6.60;;
13173;SDS011;6652;48.802;9.190;2024-03-06T09:52:42;17.07;;;6.50;;
13173;SDS011;6652;48.802;9.190;2024-03-06T09:55:11;12.93;;;7.22;;
13173;SDS011;6652;48.802;9.190;2024-03-06T09:57:40;13.70;;;7.38;;
13173;SDS011;6652;48.802;9.190;2024-03-06T10:00:07;16.90;;;8.43;;
13173;SDS011;6652;48.802;9.190;2024-03-06T10:02:37;15.77;;;9.05;;
13173;SDS011;6652;48.802;9.190;2024-03-06T10:05:06;18.63;;;9.20;;
13173;SDS011;6652;48.802;9.190;2024-03-06T10:07:49;17.83;;;9.30;;
13173;SDS011;6652;48.802;9.190;2024-03-06T10:10:17;18.95;;;9.80;;
13173;SDS011;6652;48.802;9.190;2024-03-06T10:12:45;17.67;;;10.23;;
13173;SDS011;6652;48.802;9.190;2024-03-06T10:15:13;16.73;;;9.80;;
13173;SDS011;6652;48.802;9.190;2024-03-06T10:17:40;19.05;;;9.93;;
13173;SDS011;6652;48.802;9.190;2024-03-06T10:20:17;16.77;;;10.15;;
13173;SDS011;6652;48.802;9.190;2024-03-06T10:22:49;17.38;;;10.20;;
13173;SDS011;6652;48.802;9.190;2024-03-06T10:25:20;28.98;;;11.18;;
13173;SDS011;6652;48.802;9.190;2024-03-06T10:28:02;20.77;;;12.00;;
13173;SDS011;6652;48.802;9.190;2024-03-06T10:30:30;21.50;;;11.33;;
13173;SDS011;6652;48.802;9.190;2024-03-06T10:32:58;18.48;;;10.05;;
13173;SDS011;6652;48.802;9.190;2024-03-06T10:35:26;19.27;;;11.20;;
13173;SDS011;6652;48.802;9.190;2024-03-06T10:37:54;19.60;;;11.93;;
13173;SDS011;6652;48.802;9.190;2024-03-06T10:40:22;19.40;;;12.52;;
13173;SDS011;6652;48.802;9.190;2024-03-06T10:42:49;19.25;;;13.60;;
13173;SDS011;6652;48.802;9.190;2024-03-06T10:45:16;19.35;;;13.27;;
13173;SDS011;6652;48.802;9.190;2024-03-06T10:47:46;20.92;;;13.40;;
13173;SDS011;6652;48.802;9.190;2024-03-06T10:50:14;19.38;;;14.35;;
13173;SDS011;6652;48.802;9.190;2024-03-06T10:52:43;22.55;;;14.40;;
13173;SDS011;6652;48.802;9.190;2024-03-06T10:55:13;23.20;;;14.95;;
13173;SDS011;6652;48.802;9.190;2024-03-06T10:57:41;26.15;;;15.40;;
13173;SDS011;6652;48.802;9.190;2024-03-06T11:00:10;30.20;;;17.33;;
13173;SDS011;6652;48.802;9.190;2024-03-06T11:02:42;27.13;;;18.50;;
13173;SDS011;6652;48.802;9.190;2024-03-06T11:05:13;26.92;;;17.77;;
13173;SDS011;6652;48.802;9.190;2024-03-06T11:07:40;27.02;;;17.90;;
13173;SDS011;6652;48.802;9.190;2024-03-06T11:10:09;27.85;;;18.35;;
13173;SDS011;6652;48.802;9.190;2024-03-06T11:12:41;28.60;;;20.17;;
13173;SDS011;6652;48.802;9.190;2024-03-06T11:15:10;32.72;;;20.90;;
13173;SDS011;6652;48.802;9.190;2024-03-06T11:17:40;29.58;;;19.42;;
13173;SDS011;6652;48.802;9.190;2024-03-06T11:20:08;29.50;;;19.58;;
13173;SDS011;6652;48.802;9.190;2024-03-06T11:28:37;32.60;;;20.35;;
13173;SDS011;6652;48.802;9.190;2024-03-06T11:31:06;34.00;;;21.02;;
13173;SDS011;6652;48.802;9.190;2024-03-06T11:33:37;31.88;;;21.85;;
13173;SDS011;6652;48.802;9.190;2024-03-06T11:36:16;32.33;;;21.00;;
13173;SDS011;6652;48.802;9.190;2024-03-06T11:38:50;30.92;;;21.23;;
13173;SDS011;6652;48.802;9.190;2024-03-06T11:41:18;33.05;;;22.50;;
13173;SDS011;6652;48.802;9.190;2024-03-06T11:43:45;32.97;;;22.25;;
13173;SDS011;6652;48.802;9.190;2024-03-06T11:46:15;33.65;;;24.38;;
13173;SDS011;6652;48.802;9.190;2024-03-06T11:48:43;35.78;;;24.67;;
13173;SDS011;6652;48.802;9.190;2024-03-06T11:51:17;38.17;;;24.90;;
13173;SDS011;6652;48.802;9.190;2024-03-06T11:53:44;40.85;;;25.70;;
13173;SDS011;6652;48.802;9.190;2024-03-06T11:56:13;33.55;;;25.38;;
13173;SDS011;6652;48.802;9.190;2024-03-06T11:58:39;45.78;;;27.15;;
13173;SDS011;6652;48.802;9.190;2024-03-06T12:01:06;38.55;;;26.30;;
13173;SDS011;6652;48.802;9.190;2024-03-06T12:03:33;41.70;;;27.48;;
13173;SDS011;6652;48.802;9.190;2024-03-06T12:06:00;40.55;;;25.85;;
13173;SDS011;6652;48.802;9.190;2024-03-06T12:08:28;44.72;;;27.63;;
13173;SDS011;6652;48.802;9.190;2024-03-06T12:10:55;35.17;;;26.33;;
13173;SDS011;6652;48.802;9.190;2024-03-06T12:13:24;37.38;;;26.70;;
13173;SDS011;6652;48.802;9.190;2024-03-06T12:15:51;38.97;;;26.65;;
13173;SDS011;6652;48.802;9.190;2024-03-06T12:18:18;43.15;;;27.80;;
13173;SDS011;6652;48.802;9.190;2024-03-06T12:20:45;37.65;;;27.17;;
13173;SDS011;6652;48.802;9.190;2024-03-06T12:23:20;41.45;;;27.48;;
13173;SDS011;6652;48.802;9.190;2024-03-06T12:25:48;36.20;;;25.40;;
13173;SDS011;6652;48.802;9.190;2024-03-06T12:28:15;37.75;;;26.75;;
13173;SDS011;6652;48.802;9.190;2024-03-06T12:30:44;38.33;;;26.77;;
13173;SDS011;6652;48.802;9.190;2024-03-06T12:33:11;39.00;;;24.67;;
13173;SDS011;6652;48.802;9.190;2024-03-06T12:35:43;37.00;;;25.15;;
13173;SDS011;6652;48.802;9.190;2024-03-06T12:38:12;37.53;;;25.17;;
13173;SDS011;6652;48.802;9.190;2024-03-06T12:40:40;34.05;;;25.55;;
13173;SDS011;6652;48.802;9.190;2024-03-06T12:43:07;42.97;;;24.88;;
13173;SDS011;6652;48.802;9.190;2024-03-06T12:45:35;35.38;;;23.95;;
13173;SDS011;6652;48.802;9.190;2024-03-06T12:48:04;36.42;;;25.45;;
13173;SDS011;6652;48.802;9.190;2024-03-06T12:50:31;47.00;;;29.30;;
13173;SDS011;6652;48.802;9.190;2024-03-06T12:52:58;42.40;;;28.38;;
13173;SDS011;6652;48.802;9.190;2024-03-06T12:55:25;39.10;;;25.83;;
13173;SDS011;6652;48.802;9.190;2024-03-06T12:57:52;38.00;;;26.70;;
13173;SDS011;6652;48.802;9.190;2024-03-06T13:00:19;34.63;;;25.48;;
13173;SDS011;6652;48.802;9.190;2024-03-06T13:02:46;41.60;;;26.40;;
13173;SDS011;6652;48.802;9.190;2024-03-06T13:05:15;39.75;;;25.48;;
13173;SDS011;6652;48.802;9.190;2024-03-06T13:07:42;36.65;;;25.92;;
13173;SDS011;6652;48.802;9.190;2024-03-06T13:10:09;37.28;;;26.75;;
13173;SDS011;6652;48.802;9.190;2024-03-06T13:12:37;39.65;;;26.92;;
13173;SDS011;6652;48.802;9.190;2024-03-06T13:15:05;37.70;;;27.73;;
13173;SDS011;6652;48.802;9.190;2024-03-06T13:17:33;38.63;;;26.02;;
13173;SDS011;6652;48.802;9.190;2024-03-06T13:20:00;35.22;;;25.67;;
13173;SDS011;6652;48.802;9.190;2024-03-06T13:22:28;33.85;;;25.30;;
13173;SDS011;6652;48.802;9.190;2024-03-06T13:24:55;39.33;;;26.55;;
13173;SDS011;6652;48.802;9.190;2024-03-06T13:27:23;38.22;;;24.85;;
13173;SDS011;6652;48.802;9.190;2024-03-06T13:29:50;35.03;;;24.67;;
13173;SDS011;6652;48.802;9.190;2024-03-06T13:32:17;38.75;;;23.58;;
13173;SDS011;6652;48.802;9.190;2024-03-06T13:34:44;35.67;;;25.85;;
13173;SDS011;6652;48.802;9.190;2024-03-06T13:37:11;35.30;;;23.45;;
13173;SDS011;6652;48.802;9.190;2024-03-06T13:39:39;39.05;;;22.73;;
13173;SDS011;6652;48.802;9.190;2024-03-06T13:42:06;35.05;;;22.30;;
13173;SDS011;6652;48.802;9.190;2024-03-06T13:44:34;38.30;;;23.48;;
13173;SDS011;6652;48.802;9.190;2024-03-06T13:47:01;37.42;;;23.45;;
13173;SDS011;6652;48.802;9.190;2024-03-06T13:49:35;34.45;;;23.70;;
13173;SDS011;6652;48.802;9.190;2024-03-06T13:52:03;35.88;;;24.50;;
13173;SDS011;6652;48.802;9.190;2024-03-06T13:54:32;33.88;;;22.48;;
13173;SDS011;6652;48.802;9.190;2024-03-06T13:57:00;30.95;;;21.40;;
13173;SDS011;6652;48.802;9.190;2024-03-06T13:59:28;32.65;;;22.58;;
13173;SDS011;6652;48.802;9.190;2024-03-06T14:01:55;37.10;;;23.70;;
13173;SDS011;6652;48.802;9.190;2024-03-06T14:04:22;33.33;;;22.35;;
13173;SDS011;6652;48.802;9.190;2024-03-06T14:06:49;32.53;;;22.58;;
13173;SDS011;6652;48.802;9.190;2024-03-06T14:09:16;32.50;;;22.92;;
13173;SDS011;6652;48.802;9.190;2024-03-06T14:11:43;37.40;;;23.27;;
13173;SDS011;6652;48.802;9.190;2024-03-06T14:14:11;34.65;;;22.83;;
13173;SDS011;6652;48.802;9.190;2024-03-06T14:16:39;35.05;;;23.20;;
13173;SDS011;6652;48.802;9.190;2024-03-06T14:19:07;36.70;;;24.17;;
13173;SDS011;6652;48.802;9.190;2024-03-06T14:21:34;33.88;;;23.20;;
13173;SDS011;6652;48.802;9.190;2024-03-06T14:24:01;33.22;;;23.88;;
13173;SDS011;6652;48.802;9.190;2024-03-06T14:26:30;41.50;;;26.30;;
13173;SDS011;6652;48.802;9.190;2024-03-06T14:28:58;34.40;;;25.25;;
13173;SDS011;6652;48.802;9.190;2024-03-06T14:31:26;41.95;;;26.98;;
13173;SDS011;6652;48.802;9.190;2024-03-06T14:33:53;39.20;;;27.08;;
13173;SDS011;6652;48.802;9.190;2024-03-06T14:36:21;35.97;;;25.58;;
13173;SDS011;6652;48.802;9.190;2024-03-06T14:38:50;38.85;;;26.42;;
13173;SDS011;6652;48.802;9.190;2024-03-06T14:41:18;41.85;;;26.83;;
13173;SDS011;6652;48.802;9.190;2024-03-06T14:43:45;39.08;;;26.23;;
13173;SDS011;6652;48.802;9.190;2024-03-06T14:46:12;37.53;;;26.98;;
13173;SDS011;6652;48.802;9.190;2024-03-06T14:48:41;39.85;;;27.25;;
13173;SDS011;6652;48.802;9.190;2024-03-06T14:51:09;40.95;;;26.83;;
13173;SDS011;6652;48.802;9.190;2024-03-06T14:53:36;40.40;;;26.70;;